sensor_id;sensor_type;location;lat;lon;timestamp;temperature;humidity
58469;DHT22;44257;44.804;10.220;2022-11-14T00:00:21;10.20;99.90
58469;DHT22;44257;44.804;10.220;2022-11-14T00:03:07;10.20;99.90
58469;DHT22;44257;44.804;10.220;2022-11-14T00:05:51;10.30;99.90
58469;DHT22;44257;44.804;10.220;2022-11-14T00:08:36;10.30;99.90
58469;DHT22;44257;44.804;10.220;2022-11-14T00:11:20;10.30;99.90
58469;DHT22;44257;44.804;10.220;2022-11-14T00:14:05;10.30;99.90
58469;DHT22;44257;44.804;10.220;2022-11-14T00:16:49;10.30;99.90
58469;DHT22;44257;44.804;10.220;2022-11-14T00:19:34;10.30;99.90
58469;DHT22;44257;44.804;10.220;2022-11-14T00:22:17;10.30;99.90
58469;DHT22;44257;44.804;10.220;2022-11-14T00:25:02;10.30;99.90
58469;DHT22;44257;44.804;10.220;2022-11-14T00:27:48;10.30;99.90
58469;DHT22;44257;44.804;10.220;2022-11-14T00:30:32;10.40;99.90
58469;DHT22;44257;44.804;10.220;2022-11-14T00:33:18;10.40;99.90
58469;DHT22;44257;44.804;10.220;2022-11-14T00:36:04;10.40;99.90
58469;DHT22;44257;44.804;10.220;2022-11-14T00:38:52;10.50;99.90
58469;DHT22;44257;44.804;10.220;2022-11-14T00:41:36;10.50;99.90
58469;DHT22;44257;44.804;10.220;2022-11-14T00:44:21;10.50;99.90
58469;DHT22;44257;44.804;10.220;2022-11-14T00:47:05;10.50;99.90
58469;DHT22;44257;44.804;10.220;2022-11-14T00:49:50;10.50;99.90
58469;DHT22;44257;44.804;10.220;2022-11-14T00:52:34;10.50;99.90
58469;DHT22;44257;44.804;10.220;2022-11-14T00:55:19;10.40;99.90
58469;DHT22;44257;44.804;10.220;2022-11-14T00:58:03;10.40;99.90
58469;DHT22;44257;44.804;10.220;2022-11-14T01:00:48;10.40;99.90
58469;DHT22;44257;44.804;10.220;2022-11-14T01:03:32;10.40;99.90
58469;DHT22;44257;44.804;10.220;2022-11-14T01:06:18;10.40;99.90
58469;DHT22;44257;44.804;10.220;2022-11-14T01:09:03;10.30;99.90
58469;DHT22;44257;44.804;10.220;2022-11-14T01:11:47;10.30;99.90
58469;DHT22;44257;44.804;10.220;2022-11-14T01:14:31;10.30;99.90
58469;DHT22;44257;44.804;10.220;2022-11-14T01:17:15;10.20;99.90
58469;DHT22;44257;44.804;10.220;2022-11-14T01:20:00;10.20;99.90
58469;DHT22;44257;44.804;10.220;2022-11-14T01:22:44;10.20;99.90
58469;DHT22;44257;44.804;10.220;2022-11-14T01:25:31;10.20;99.90
58469;DHT22;44257;44.804;10.220;2022-11-14T01:28:18;10.20;99.90
58469;DHT22;44257;44.804;10.220;2022-11-14T01:31:14;10.20;99.90
58469;DHT22;44257;44.804;10.220;2022-11-14T01:33:59;10.20;99.90
58469;DHT22;44257;44.804;10.220;2022-11-14T01:36:43;10.10;99.90
58469;DHT22;44257;44.804;10.220;2022-11-14T01:39:27;10.00;99.90
58469;DHT22;44257;44.804;10.220;2022-11-14T01:42:11;10.00;99.90
58469;DHT22;44257;44.804;10.220;2022-11-14T01:44:56;10.00;99.90
58469;DHT22;44257;44.804;10.220;2022-11-14T01:47:41;9.90;99.90
58469;DHT22;44257;44.804;10.220;2022-11-14T01:50:26;9.90;99.90
58469;DHT22;44257;44.804;10.220;2022-11-14T01:53:11;9.80;99.90
58469;DHT22;44257;44.804;10.220;2022-11-14T01:55:57;9.80;99.90
58469;DHT22;44257;44.804;10.220;2022-11-14T01:58:48;9.70;99.90
58469;DHT22;44257;44.804;10.220;2022-11-14T02:01:35;9.60;99.90
58469;DHT22;44257;44.804;10.220;2022-11-14T02:07:11;9.40;99.90
58469;DHT22;44257;44.804;10.220;2022-11-14T02:09:56;9.30;99.90
58469;DHT22;44257;44.804;10.220;2022-11-14T02:12:43;9.20;99.90
58469;DHT22;44257;44.804;10.220;2022-11-14T02:15:28;9.10;99.90
58469;DHT22;44257;44.804;10.220;2022-11-14T02:18:12;9.00;99.90
58469;DHT22;44257;44.804;10.220;2022-11-14T02:20:58;9.00;99.90
58469;DHT22;44257;44.804;10.220;2022-11-14T02:23:42;9.00;99.90
58469;DHT22;44257;44.804;10.220;2022-11-14T02:26:27;9.00;99.90
58469;DHT22;44257;44.804;10.220;2022-11-14T02:29:12;9.00;99.90
58469;DHT22;44257;44.804;10.220;2022-11-14T02:31:56;9.00;99.90
58469;DHT22;44257;44.804;10.220;2022-11-14T02:34:41;9.10;99.90
58469;DHT22;44257;44.804;10.220;2022-11-14T02:37:26;9.20;99.90
58469;DHT22;44257;44.804;10.220;2022-11-14T02:40:11;9.20;99.90
58469;DHT22;44257;44.804;10.220;2022-11-14T02:42:55;9.30;99.90
58469;DHT22;44257;44.804;10.220;2022-11-14T02:45:40;9.30;99.90
58469;DHT22;44257;44.804;10.220;2022-11-14T02:48:24;9.40;99.90
58469;DHT22;44257;44.804;10.220;2022-11-14T02:51:09;9.40;99.90
58469;DHT22;44257;44.804;10.220;2022-11-14T02:53:53;9.50;99.90
58469;DHT22;44257;44.804;10.220;2022-11-14T02:56:39;9.50;99.90
58469;DHT22;44257;44.804;10.220;2022-11-14T02:59:23;9.50;99.90
58469;DHT22;44257;44.804;10.220;2022-11-14T03:02:08;9.60;99.90
58469;DHT22;44257;44.804;10.220;2022-11-14T03:04:53;9.70;99.90
58469;DHT22;44257;44.804;10.220;2022-11-14T03:07:37;9.70;99.90
58469;DHT22;44257;44.804;10.220;2022-11-14T03:10:22;9.70;99.90
58469;DHT22;44257;44.804;10.220;2022-11-14T03:13:06;9.80;99.90
58469;DHT22;44257;44.804;10.220;2022-11-14T03:15:51;9.80;99.90
58469;DHT22;44257;44.804;10.220;2022-11-14T03:18:36;9.80;99.90
58469;DHT22;44257;44.804;10.220;2022-11-14T03:21:21;9.80;99.90
58469;DHT22;44257;44.804;10.220;2022-11-14T03:24:06;9.80;99.90
58469;DHT22;44257;44.804;10.220;2022-11-14T03:26:51;9.80;99.90
58469;DHT22;44257;44.804;10.220;2022-11-14T03:29:35;9.80;99.90
58469;DHT22;44257;44.804;10.220;2022-11-14T03:32:20;9.80;99.90
58469;DHT22;44257;44.804;10.220;2022-11-14T03:35:05;9.90;99.90
58469;DHT22;44257;44.804;10.220;2022-11-14T03:37:49;10.00;99.90
58469;DHT22;44257;44.804;10.220;2022-11-14T03:40:38;10.00;99.90
58469;DHT22;44257;44.804;10.220;2022-11-14T03:43:22;10.10;99.90
58469;DHT22;44257;44.804;10.220;2022-11-14T03:46:07;10.20;99.90
58469;DHT22;44257;44.804;10.220;2022-11-14T03:48:52;10.20;99.90
58469;DHT22;44257;44.804;10.220;2022-11-14T03:51:36;10.20;99.90
58469;DHT22;44257;44.804;10.220;2022-11-14T03:54:21;10.20;99.90
58469;DHT22;44257;44.804;10.220;2022-11-14T03:57:05;10.20;99.90
58469;DHT22;44257;44.804;10.220;2022-11-14T03:59:51;10.20;99.90
58469;DHT22;44257;44.804;10.220;2022-11-14T04:02:35;10.20;99.90
58469;DHT22;44257;44.804;10.220;2022-11-14T04:05:22;10.20;99.90
58469;DHT22;44257;44.804;10.220;2022-11-14T04:08:08;10.20;99.90
58469;DHT22;44257;44.804;10.220;2022-11-14T04:10:52;10.20;99.90
58469;DHT22;44257;44.804;10.220;2022-11-14T04:13:37;10.20;99.90
58469;DHT22;44257;44.804;10.220;2022-11-14T04:16:21;10.30;99.90
58469;DHT22;44257;44.804;10.220;2022-11-14T04:19:06;10.30;99.90
58469;DHT22;44257;44.804;10.220;2022-11-14T04:21:50;10.20;99.90
58469;DHT22;44257;44.804;10.220;2022-11-14T04:24:35;10.20;99.90
58469;DHT22;44257;44.804;10.220;2022-11-14T04:27:21;10.20;99.90
58469;DHT22;44257;44.804;10.220;2022-11-14T04:30:06;10.20;99.90
58469;DHT22;44257;44.804;10.220;2022-11-14T04:32:50;10.20;99.90
58469;DHT22;44257;44.804;10.220;2022-11-14T04:35:34;10.20;99.90
58469;DHT22;44257;44.804;10.220;2022-11-14T04:38:19;10.30;99.90
58469;DHT22;44257;44.804;10.220;2022-11-14T04:41:04;10.30;99.90
58469;DHT22;44257;44.804;10.220;2022-11-14T04:43:48;10.30;99.90
58469;DHT22;44257;44.804;10.220;2022-11-14T04:46:33;10.30;99.90
58469;DHT22;44257;44.804;10.220;2022-11-14T04:49:18;10.20;99.90
58469;DHT22;44257;44.804;10.220;2022-11-14T04:52:02;10.20;99.90
58469;DHT22;44257;44.804;10.220;2022-11-14T04:54:47;10.20;99.90
58469;DHT22;44257;44.804;10.220;2022-11-14T04:57:32;10.20;99.90
58469;DHT22;44257;44.804;10.220;2022-11-14T05:00:17;10.20;99.90
58469;DHT22;44257;44.804;10.220;2022-11-14T05:03:01;10.20;99.90
58469;DHT22;44257;44.804;10.220;2022-11-14T05:05:45;10.20;99.90
58469;DHT22;44257;44.804;10.220;2022-11-14T05:08:29;10.30;99.90
58469;DHT22;44257;44.804;10.220;2022-11-14T05:11:16;10.30;99.90
58469;DHT22;44257;44.804;10.220;2022-11-14T05:14:00;10.30;99.90
58469;DHT22;44257;44.804;10.220;2022-11-14T05:16:45;10.30;99.90
58469;DHT22;44257;44.804;10.220;2022-11-14T05:19:30;10.30;99.90
58469;DHT22;44257;44.804;10.220;2022-11-14T05:22:14;10.30;99.90
58469;DHT22;44257;44.804;10.220;2022-11-14T05:25:00;10.20;99.90
58469;DHT22;44257;44.804;10.220;2022-11-14T05:27:44;10.30;99.90
58469;DHT22;44257;44.804;10.220;2022-11-14T05:30:29;10.30;99.90
58469;DHT22;44257;44.804;10.220;2022-11-14T05:33:14;10.20;99.90
58469;DHT22;44257;44.804;10.220;2022-11-14T05:36:07;10.20;99.90
58469;DHT22;44257;44.804;10.220;2022-11-14T05:38:53;10.20;99.90
58469;DHT22;44257;44.804;10.220;2022-11-14T05:41:37;10.10;99.90
58469;DHT22;44257;44.804;10.220;2022-11-14T05:44:21;10.10;99.90
58469;DHT22;44257;44.804;10.220;2022-11-14T05:47:06;10.10;99.90
58469;DHT22;44257;44.804;10.220;2022-11-14T05:49:51;10.10;99.90
58469;DHT22;44257;44.804;10.220;2022-11-14T05:52:35;10.10;99.90
58469;DHT22;44257;44.804;10.220;2022-11-14T05:55:20;10.10;99.90
58469;DHT22;44257;44.804;10.220;2022-11-14T05:58:04;10.20;99.90
58469;DHT22;44257;44.804;10.220;2022-11-14T06:00:49;10.20;99.90
58469;DHT22;44257;44.804;10.220;2022-11-14T06:03:36;10.20;99.90
58469;DHT22;44257;44.804;10.220;2022-11-14T06:06:21;10.20;99.90
58469;DHT22;44257;44.804;10.220;2022-11-14T06:09:06;10.20;99.90
58469;DHT22;44257;44.804;10.220;2022-11-14T06:11:51;10.20;99.90
58469;DHT22;44257;44.804;10.220;2022-11-14T06:14:35;10.20;99.90
58469;DHT22;44257;44.804;10.220;2022-11-14T06:17:20;10.20;99.90
58469;DHT22;44257;44.804;10.220;2022-11-14T06:20:05;10.30;99.90
58469;DHT22;44257;44.804;10.220;2022-11-14T06:22:53;10.30;99.90
58469;DHT22;44257;44.804;10.220;2022-11-14T06:25:38;10.30;99.90
58469;DHT22;44257;44.804;10.220;2022-11-14T06:28:23;10.30;99.90
58469;DHT22;44257;44.804;10.220;2022-11-14T06:31:07;10.40;99.90
58469;DHT22;44257;44.804;10.220;2022-11-14T06:33:52;10.30;99.90
58469;DHT22;44257;44.804;10.220;2022-11-14T06:36:37;10.30;99.90
58469;DHT22;44257;44.804;10.220;2022-11-14T06:39:22;10.40;99.90
58469;DHT22;44257;44.804;10.220;2022-11-14T06:42:06;10.40;99.90
58469;DHT22;44257;44.804;10.220;2022-11-14T06:44:51;10.40;99.90
58469;DHT22;44257;44.804;10.220;2022-11-14T06:47:36;10.40;99.90
58469;DHT22;44257;44.804;10.220;2022-11-14T06:50:20;10.40;99.90
58469;DHT22;44257;44.804;10.220;2022-11-14T06:53:05;10.50;99.90
58469;DHT22;44257;44.804;10.220;2022-11-14T06:56:14;10.50;99.90
58469;DHT22;44257;44.804;10.220;2022-11-14T06:58:58;10.60;99.90
58469;DHT22;44257;44.804;10.220;2022-11-14T07:01:43;10.60;99.90
58469;DHT22;44257;44.804;10.220;2022-11-14T07:04:27;10.70;99.90
58469;DHT22;44257;44.804;10.220;2022-11-14T07:07:12;10.70;99.90
58469;DHT22;44257;44.804;10.220;2022-11-14T07:09:56;10.70;99.90
58469;DHT22;44257;44.804;10.220;2022-11-14T07:12:42;10.80;99.90
58469;DHT22;44257;44.804;10.220;2022-11-14T07:15:26;10.80;99.90
58469;DHT22;44257;44.804;10.220;2022-11-14T07:18:11;10.90;99.90
58469;DHT22;44257;44.804;10.220;2022-11-14T07:21:03;10.90;99.90
58469;DHT22;44257;44.804;10.220;2022-11-14T07:23:48;10.90;99.90
58469;DHT22;44257;44.804;10.220;2022-11-14T07:26:33;10.90;99.90
58469;DHT22;44257;44.804;10.220;2022-11-14T07:29:18;11.00;99.90
58469;DHT22;44257;44.804;10.220;2022-11-14T07:32:02;11.00;99.90
58469;DHT22;44257;44.804;10.220;2022-11-14T07:34:47;11.10;99.90
58469;DHT22;44257;44.804;10.220;2022-11-14T07:37:32;11.10;99.90
58469;DHT22;44257;44.804;10.220;2022-11-14T07:40:17;11.20;99.90
58469;DHT22;44257;44.804;10.220;2022-11-14T07:43:01;11.30;99.90
58469;DHT22;44257;44.804;10.220;2022-11-14T07:45:46;11.30;99.90
58469;DHT22;44257;44.804;10.220;2022-11-14T07:48:31;11.40;99.90
58469;DHT22;44257;44.804;10.220;2022-11-14T07:51:17;11.40;99.90
58469;DHT22;44257;44.804;10.220;2022-11-14T07:54:03;11.60;99.90
58469;DHT22;44257;44.804;10.220;2022-11-14T07:56:47;11.70;99.90
58469;DHT22;44257;44.804;10.220;2022-11-14T07:59:32;11.90;99.90
58469;DHT22;44257;44.804;10.220;2022-11-14T08:02:17;12.10;99.90
58469;DHT22;44257;44.804;10.220;2022-11-14T08:05:01;12.30;99.90
58469;DHT22;44257;44.804;10.220;2022-11-14T08:07:46;12.40;99.90
58469;DHT22;44257;44.804;10.220;2022-11-14T08:10:33;12.50;99.90
58469;DHT22;44257;44.804;10.220;2022-11-14T08:13:17;12.70;99.90
58469;DHT22;44257;44.804;10.220;2022-11-14T08:16:07;12.80;99.90
58469;DHT22;44257;44.804;10.220;2022-11-14T08:18:51;12.80;99.90
58469;DHT22;44257;44.804;10.220;2022-11-14T08:21:36;12.80;99.90
58469;DHT22;44257;44.804;10.220;2022-11-14T08:24:20;12.80;99.90
58469;DHT22;44257;44.804;10.220;2022-11-14T08:27:05;12.80;99.90
58469;DHT22;44257;44.804;10.220;2022-11-14T08:29:50;12.70;99.90
58469;DHT22;44257;44.804;10.220;2022-11-14T08:32:35;12.80;99.90
58469;DHT22;44257;44.804;10.220;2022-11-14T08:35:20;12.90;99.90
58469;DHT22;44257;44.804;10.220;2022-11-14T08:38:04;13.10;99.90
58469;DHT22;44257;44.804;10.220;2022-11-14T08:40:49;13.30;99.90
58469;DHT22;44257;44.804;10.220;2022-11-14T08:43:34;13.50;99.90
58469;DHT22;44257;44.804;10.220;2022-11-14T08:46:18;13.60;99.90
58469;DHT22;44257;44.804;10.220;2022-11-14T08:49:03;13.90;99.90
58469;DHT22;44257;44.804;10.220;2022-11-14T08:51:49;14.20;99.90
58469;DHT22;44257;44.804;10.220;2022-11-14T08:54:34;14.40;99.90
58469;DHT22;44257;44.804;10.220;2022-11-14T08:57:19;14.50;99.90
58469;DHT22;44257;44.804;10.220;2022-11-14T09:00:05;14.60;99.90
58469;DHT22;44257;44.804;10.220;2022-11-14T09:02:49;14.70;99.90
58469;DHT22;44257;44.804;10.220;2022-11-14T09:05:34;14.80;99.90
58469;DHT22;44257;44.804;10.220;2022-11-14T09:08:19;14.80;99.90
58469;DHT22;44257;44.804;10.220;2022-11-14T09:11:04;14.80;99.90
58469;DHT22;44257;44.804;10.220;2022-11-14T09:13:49;14.80;99.90
58469;DHT22;44257;44.804;10.220;2022-11-14T09:16:34;15.00;99.90
58469;DHT22;44257;44.804;10.220;2022-11-14T09:19:18;15.20;99.90
58469;DHT22;44257;44.804;10.220;2022-11-14T09:22:03;15.40;99.90
58469;DHT22;44257;44.804;10.220;2022-11-14T09:24:48;15.50;99.90
58469;DHT22;44257;44.804;10.220;2022-11-14T09:27:33;15.50;99.90
58469;DHT22;44257;44.804;10.220;2022-11-14T09:30:17;15.40;99.90
58469;DHT22;44257;44.804;10.220;2022-11-14T09:33:03;15.40;99.90
58469;DHT22;44257;44.804;10.220;2022-11-14T09:35:56;15.40;99.90
58469;DHT22;44257;44.804;10.220;2022-11-14T09:38:44;15.40;99.90
58469;DHT22;44257;44.804;10.220;2022-11-14T09:47:29;15.60;99.90
58469;DHT22;44257;44.804;10.220;2022-11-14T09:50:35;15.40;99.90
58469;DHT22;44257;44.804;10.220;2022-11-14T09:53:30;15.40;99.90
58469;DHT22;44257;44.804;10.220;2022-11-14T09:56:21;15.40;99.90
58469;DHT22;44257;44.804;10.220;2022-11-14T09:59:11;15.50;99.90
58469;DHT22;44257;44.804;10.220;2022-11-14T10:02:04;15.40;99.90
58469;DHT22;44257;44.804;10.220;2022-11-14T10:16:51;15.40;99.90
58469;DHT22;44257;44.804;10.220;2022-11-14T10:23:28;15.10;99.90
58469;DHT22;44257;44.804;10.220;2022-11-14T10:26:27;14.90;99.90
58469;DHT22;44257;44.804;10.220;2022-11-14T10:35:35;14.60;99.90
58469;DHT22;44257;44.804;10.220;2022-11-14T10:38:29;14.60;99.90
58469;DHT22;44257;44.804;10.220;2022-11-14T10:41:15;14.60;99.90
58469;DHT22;44257;44.804;10.220;2022-11-14T10:44:01;14.70;99.90
58469;DHT22;44257;44.804;10.220;2022-11-14T10:46:55;14.60;99.90
58469;DHT22;44257;44.804;10.220;2022-11-14T10:49:46;14.50;99.90
58469;DHT22;44257;44.804;10.220;2022-11-14T10:52:38;14.60;99.90
58469;DHT22;44257;44.804;10.220;2022-11-14T10:55:24;14.60;99.90
58469;DHT22;44257;44.804;10.220;2022-11-14T10:58:09;14.70;99.90
58469;DHT22;44257;44.804;10.220;2022-11-14T11:00:56;14.80;99.90
58469;DHT22;44257;44.804;10.220;2022-11-14T11:03:43;14.90;99.90
58469;DHT22;44257;44.804;10.220;2022-11-14T11:06:28;14.80;99.90
58469;DHT22;44257;44.804;10.220;2022-11-14T11:09:16;14.70;99.90
58469;DHT22;44257;44.804;10.220;2022-11-14T11:12:22;14.60;99.90
58469;DHT22;44257;44.804;10.220;2022-11-14T11:18:04;14.80;99.90
58469;DHT22;44257;44.804;10.220;2022-11-14T11:23:52;14.80;99.90
58469;DHT22;44257;44.804;10.220;2022-11-14T11:26:37;14.90;99.90
58469;DHT22;44257;44.804;10.220;2022-11-14T11:29:21;15.00;99.90
58469;DHT22;44257;44.804;10.220;2022-11-14T11:32:07;15.00;99.90
58469;DHT22;44257;44.804;10.220;2022-11-14T11:34:52;15.00;99.90
58469;DHT22;44257;44.804;10.220;2022-11-14T11:40:37;14.90;99.90
58469;DHT22;44257;44.804;10.220;2022-11-14T11:47:02;15.20;99.90
58469;DHT22;44257;44.804;10.220;2022-11-14T11:49:51;15.20;99.90
58469;DHT22;44257;44.804;10.220;2022-11-14T11:55:40;15.10;99.90
58469;DHT22;44257;44.804;10.220;2022-11-14T12:01:12;14.90;99.90
58469;DHT22;44257;44.804;10.220;2022-11-14T12:03:57;14.90;99.90
58469;DHT22;44257;44.804;10.220;2022-11-14T12:07:11;14.80;99.90
58469;DHT22;44257;44.804;10.220;2022-11-14T12:10:02;14.80;99.90
58469;DHT22;44257;44.804;10.220;2022-11-14T12:13:06;14.70;99.90
58469;DHT22;44257;44.804;10.220;2022-11-14T12:16:14;14.60;99.90
58469;DHT22;44257;44.804;10.220;2022-11-14T12:19:38;14.60;99.90
58469;DHT22;44257;44.804;10.220;2022-11-14T12:32:07;14.60;99.90
58469;DHT22;44257;44.804;10.220;2022-11-14T12:34:55;14.50;99.90
58469;DHT22;44257;44.804;10.220;2022-11-14T12:37:45;14.40;99.90
58469;DHT22;44257;44.804;10.220;2022-11-14T12:40:33;14.40;99.90
58469;DHT22;44257;44.804;10.220;2022-11-14T12:46:11;14.40;99.90
58469;DHT22;44257;44.804;10.220;2022-11-14T12:48:56;14.30;99.90
58469;DHT22;44257;44.804;10.220;2022-11-14T12:51:50;14.30;99.90
58469;DHT22;44257;44.804;10.220;2022-11-14T12:54:45;14.20;99.90
58469;DHT22;44257;44.804;10.220;2022-11-14T13:06:46;14.00;99.90
58469;DHT22;44257;44.804;10.220;2022-11-14T13:13:13;13.90;99.90
58469;DHT22;44257;44.804;10.220;2022-11-14T13:16:24;14.10;99.90
58469;DHT22;44257;44.804;10.220;2022-11-14T13:19:44;14.30;99.90
58469;DHT22;44257;44.804;10.220;2022-11-14T13:22:47;14.30;99.90
58469;DHT22;44257;44.804;10.220;2022-11-14T13:25:32;14.40;99.90
58469;DHT22;44257;44.804;10.220;2022-11-14T13:31:42;14.60;99.90
58469;DHT22;44257;44.804;10.220;2022-11-14T13:34:48;14.60;99.90
58469;DHT22;44257;44.804;10.220;2022-11-14T13:49:59;14.80;99.90
58469;DHT22;44257;44.804;10.220;2022-11-14T13:52:46;14.90;99.90
58469;DHT22;44257;44.804;10.220;2022-11-14T13:58:37;15.10;99.90
58469;DHT22;44257;44.804;10.220;2022-11-14T14:16:57;14.60;99.90
58469;DHT22;44257;44.804;10.220;2022-11-14T14:20:15;14.60;99.90
58469;DHT22;44257;44.804;10.220;2022-11-14T14:29:24;14.40;99.90
58469;DHT22;44257;44.804;10.220;2022-11-14T14:32:14;14.30;99.90
58469;DHT22;44257;44.804;10.220;2022-11-14T14:34:59;14.20;99.90
58469;DHT22;44257;44.804;10.220;2022-11-14T14:37:56;14.20;99.90
58469;DHT22;44257;44.804;10.220;2022-11-14T14:40:41;14.20;99.90
58469;DHT22;44257;44.804;10.220;2022-11-14T14:43:31;14.20;99.90
58469;DHT22;44257;44.804;10.220;2022-11-14T14:46:28;14.10;99.90
58469;DHT22;44257;44.804;10.220;2022-11-14T14:49:22;14.10;99.90
58469;DHT22;44257;44.804;10.220;2022-11-14T14:52:31;13.90;99.90
58469;DHT22;44257;44.804;10.220;2022-11-14T14:55:22;13.80;99.90
58469;DHT22;44257;44.804;10.220;2022-11-14T14:58:30;13.60;99.90
58469;DHT22;44257;44.804;10.220;2022-11-14T15:01:21;13.50;99.90
58469;DHT22;44257;44.804;10.220;2022-11-14T15:04:10;13.50;99.90
58469;DHT22;44257;44.804;10.220;2022-11-14T15:06:56;13.40;99.90
58469;DHT22;44257;44.804;10.220;2022-11-14T15:09:53;13.30;99.90
58469;DHT22;44257;44.804;10.220;2022-11-14T15:12:39;13.30;99.90
58469;DHT22;44257;44.804;10.220;2022-11-14T15:15:25;13.20;99.90
58469;DHT22;44257;44.804;10.220;2022-11-14T15:18:19;13.10;99.90
58469;DHT22;44257;44.804;10.220;2022-11-14T15:21:25;13.00;99.90
58469;DHT22;44257;44.804;10.220;2022-11-14T15:24:21;12.80;99.90
58469;DHT22;44257;44.804;10.220;2022-11-14T15:27:15;12.70;99.90
58469;DHT22;44257;44.804;10.220;2022-11-14T15:30:06;12.50;99.90
58469;DHT22;44257;44.804;10.220;2022-11-14T15:33:02;12.40;99.90
58469;DHT22;44257;44.804;10.220;2022-11-14T15:36:04;12.30;99.90
58469;DHT22;44257;44.804;10.220;2022-11-14T15:39:04;12.20;99.90
58469;DHT22;44257;44.804;10.220;2022-11-14T15:42:28;12.10;99.90
58469;DHT22;44257;44.804;10.220;2022-11-14T15:45:24;11.90;99.90
58469;DHT22;44257;44.804;10.220;2022-11-14T15:48:14;11.80;99.90
58469;DHT22;44257;44.804;10.220;2022-11-14T15:51:02;11.60;99.90
58469;DHT22;44257;44.804;10.220;2022-11-14T15:53:47;11.50;99.90
58469;DHT22;44257;44.804;10.220;2022-11-14T15:56:32;11.30;99.90
58469;DHT22;44257;44.804;10.220;2022-11-14T15:59:17;11.20;99.90
58469;DHT22;44257;44.804;10.220;2022-11-14T16:02:23;11.10;99.90
58469;DHT22;44257;44.804;10.220;2022-11-14T16:05:12;11.00;99.90
58469;DHT22;44257;44.804;10.220;2022-11-14T16:07:57;10.90;99.90
58469;DHT22;44257;44.804;10.220;2022-11-14T16:10:42;10.80;99.90
58469;DHT22;44257;44.804;10.220;2022-11-14T16:13:26;10.80;99.90
58469;DHT22;44257;44.804;10.220;2022-11-14T16:16:12;10.70;99.90
58469;DHT22;44257;44.804;10.220;2022-11-14T16:18:56;10.70;99.90
58469;DHT22;44257;44.804;10.220;2022-11-14T16:21:42;10.60;99.90
58469;DHT22;44257;44.804;10.220;2022-11-14T16:24:26;10.60;99.90
58469;DHT22;44257;44.804;10.220;2022-11-14T16:27:11;10.50;99.90
58469;DHT22;44257;44.804;10.220;2022-11-14T16:29:55;10.50;99.90
58469;DHT22;44257;44.804;10.220;2022-11-14T16:32:42;10.40;99.90
58469;DHT22;44257;44.804;10.220;2022-11-14T16:35:29;10.40;99.90
58469;DHT22;44257;44.804;10.220;2022-11-14T16:38:14;10.30;99.90
58469;DHT22;44257;44.804;10.220;2022-11-14T16:40:59;10.30;99.90
58469;DHT22;44257;44.804;10.220;2022-11-14T16:43:43;10.30;99.90
58469;DHT22;44257;44.804;10.220;2022-11-14T16:46:28;10.30;99.90
58469;DHT22;44257;44.804;10.220;2022-11-14T16:49:15;10.30;99.90
58469;DHT22;44257;44.804;10.220;2022-11-14T16:52:00;10.20;99.90
58469;DHT22;44257;44.804;10.220;2022-11-14T16:54:50;10.20;99.90
58469;DHT22;44257;44.804;10.220;2022-11-14T16:57:35;10.20;99.90
58469;DHT22;44257;44.804;10.220;2022-11-14T17:00:22;10.10;99.90
58469;DHT22;44257;44.804;10.220;2022-11-14T17:03:06;10.10;99.90
58469;DHT22;44257;44.804;10.220;2022-11-14T17:05:51;10.00;99.90
58469;DHT22;44257;44.804;10.220;2022-11-14T17:08:36;10.00;99.90
58469;DHT22;44257;44.804;10.220;2022-11-14T17:11:20;9.90;99.90
58469;DHT22;44257;44.804;10.220;2022-11-14T17:14:05;9.80;99.90
58469;DHT22;44257;44.804;10.220;2022-11-14T17:16:50;9.70;99.90
58469;DHT22;44257;44.804;10.220;2022-11-14T17:19:34;9.70;99.90
58469;DHT22;44257;44.804;10.220;2022-11-14T17:22:19;9.60;99.90
58469;DHT22;44257;44.804;10.220;2022-11-14T17:25:04;9.50;99.90
58469;DHT22;44257;44.804;10.220;2022-11-14T17:27:49;9.50;99.90
58469;DHT22;44257;44.804;10.220;2022-11-14T17:30:33;9.40;99.90
58469;DHT22;44257;44.804;10.220;2022-11-14T17:33:18;9.40;99.90
58469;DHT22;44257;44.804;10.220;2022-11-14T17:36:05;9.40;99.90
58469;DHT22;44257;44.804;10.220;2022-11-14T17:38:49;9.30;99.90
58469;DHT22;44257;44.804;10.220;2022-11-14T17:41:34;9.30;99.90
58469;DHT22;44257;44.804;10.220;2022-11-14T17:44:18;9.30;99.90
58469;DHT22;44257;44.804;10.220;2022-11-14T17:47:03;9.30;99.90
58469;DHT22;44257;44.804;10.220;2022-11-14T17:49:47;9.30;99.90
58469;DHT22;44257;44.804;10.220;2022-11-14T17:52:32;9.30;99.90
58469;DHT22;44257;44.804;10.220;2022-11-14T17:55:17;9.20;99.90
58469;DHT22;44257;44.804;10.220;2022-11-14T17:58:01;9.20;99.90
58469;DHT22;44257;44.804;10.220;2022-11-14T18:00:46;9.20;99.90
58469;DHT22;44257;44.804;10.220;2022-11-14T18:03:30;9.10;99.90
58469;DHT22;44257;44.804;10.220;2022-11-14T18:06:17;9.10;99.90
58469;DHT22;44257;44.804;10.220;2022-11-14T18:09:04;9.00;99.90
58469;DHT22;44257;44.804;10.220;2022-11-14T18:11:49;8.90;99.90
58469;DHT22;44257;44.804;10.220;2022-11-14T18:14:33;8.90;99.90
58469;DHT22;44257;44.804;10.220;2022-11-14T18:17:19;8.90;99.90
58469;DHT22;44257;44.804;10.220;2022-11-14T18:20:03;8.90;99.90
58469;DHT22;44257;44.804;10.220;2022-11-14T18:22:49;8.90;99.90
58469;DHT22;44257;44.804;10.220;2022-11-14T18:25:34;8.90;99.90
58469;DHT22;44257;44.804;10.220;2022-11-14T18:28:19;8.90;99.90
58469;DHT22;44257;44.804;10.220;2022-11-14T18:31:04;8.80;99.90
58469;DHT22;44257;44.804;10.220;2022-11-14T18:33:50;8.80;99.90
58469;DHT22;44257;44.804;10.220;2022-11-14T18:36:36;8.70;99.90
58469;DHT22;44257;44.804;10.220;2022-11-14T18:39:20;8.70;99.90
58469;DHT22;44257;44.804;10.220;2022-11-14T18:42:05;8.60;99.90
58469;DHT22;44257;44.804;10.220;2022-11-14T18:44:49;8.60;99.90
58469;DHT22;44257;44.804;10.220;2022-11-14T18:47:34;8.50;99.90
58469;DHT22;44257;44.804;10.220;2022-11-14T18:50:18;8.50;99.90
58469;DHT22;44257;44.804;10.220;2022-11-14T18:53:03;8.50;99.90
58469;DHT22;44257;44.804;10.220;2022-11-14T18:55:48;8.40;99.90
58469;DHT22;44257;44.804;10.220;2022-11-14T18:58:36;8.40;99.90
58469;DHT22;44257;44.804;10.220;2022-11-14T19:01:24;8.30;99.90
58469;DHT22;44257;44.804;10.220;2022-11-14T19:04:10;8.30;99.90
58469;DHT22;44257;44.804;10.220;2022-11-14T19:06:55;8.20;99.90
58469;DHT22;44257;44.804;10.220;2022-11-14T19:09:40;8.20;99.90
58469;DHT22;44257;44.804;10.220;2022-11-14T19:12:24;8.20;99.90
58469;DHT22;44257;44.804;10.220;2022-11-14T19:15:09;8.10;99.90
58469;DHT22;44257;44.804;10.220;2022-11-14T19:17:54;8.10;99.90